Guilford, Connecticut
Current Conditions -  °F | °C
As of 8:53 AM on Saturday 01 Nov 2014 (Local Time) from KHVN Reporting Station
Overcast Overcast  
Wind Chill: 40°   Ceiling: 6500
Heat Index: 47°   Visibility: 10mi
Dew Point: 34°   Wind: 20mph
Humidity: 61%   Direction: 10°N
Pressure: 29.83"   Gusts: 30mph
Location:  41.29°N, 72.68°W
Report Text: KHVN 011253Z 01017G26KT 10SM OVC065 08/01 A2983 RMK AO2 PK WND 36026/1251 RAE1159 SLP101 P0000 T00830011
Loading
Personal Weather Stations






























Interactive Weather Map
Tropical Storm Tracking
New forecast layout! Learn more

10-Day Weather Forecast

Advertisements
Track Severe Weather on mobile